sensor_id;sensor_type;location;lat;lon;timestamp;temperature;humidity
25640;DHT22;13497;48.322;16.204;2023-07-08T00:00:28;17.40;96.20
25640;DHT22;13497;48.322;16.204;2023-07-08T00:02:54;17.40;96.40
25640;DHT22;13497;48.322;16.204;2023-07-08T00:05:21;17.50;98.00
25640;DHT22;13497;48.322;16.204;2023-07-08T00:07:48;17.50;98.40
25640;DHT22;13497;48.322;16.204;2023-07-08T00:10:17;17.40;98.70
25640;DHT22;13497;48.322;16.204;2023-07-08T00:12:44;17.30;98.90
25640;DHT22;13497;48.322;16.204;2023-07-08T00:15:11;17.30;99.20
25640;DHT22;13497;48.322;16.204;2023-07-08T00:17:37;17.30;99.50
25640;DHT22;13497;48.322;16.204;2023-07-08T00:20:20;17.30;99.70
25640;DHT22;13497;48.322;16.204;2023-07-08T00:22:46;17.30;99.90
25640;DHT22;13497;48.322;16.204;2023-07-08T00:25:18;17.30;99.90
25640;DHT22;13497;48.322;16.204;2023-07-08T00:27:47;17.20;99.90
25640;DHT22;13497;48.322;16.204;2023-07-08T00:30:29;17.10;99.90
25640;DHT22;13497;48.322;16.204;2023-07-08T00:32:56;17.10;99.90
25640;DHT22;13497;48.322;16.204;2023-07-08T00:35:32;17.10;99.90
25640;DHT22;13497;48.322;16.204;2023-07-08T00:37:58;17.10;99.90
25640;DHT22;13497;48.322;16.204;2023-07-08T00:40:31;17.20;99.60
25640;DHT22;13497;48.322;16.204;2023-07-08T00:43:01;17.10;98.10
25640;DHT22;13497;48.322;16.204;2023-07-08T00:45:47;16.90;98.30
25640;DHT22;13497;48.322;16.204;2023-07-08T00:48:28;16.80;98.70
25640;DHT22;13497;48.322;16.204;2023-07-08T00:50:55;16.70;98.70
25640;DHT22;13497;48.322;16.204;2023-07-08T00:53:30;16.50;99.00
25640;DHT22;13497;48.322;16.204;2023-07-08T00:58:47;16.20;99.70
25640;DHT22;13497;48.322;16.204;2023-07-08T01:01:14;16.20;99.80
25640;DHT22;13497;48.322;16.204;2023-07-08T01:06:59;16.00;99.90
25640;DHT22;13497;48.322;16.204;2023-07-08T01:09:34;15.90;99.90
25640;DHT22;13497;48.322;16.204;2023-07-08T01:12:04;15.80;99.90
25640;DHT22;13497;48.322;16.204;2023-07-08T01:14:32;15.80;99.90
25640;DHT22;13497;48.322;16.204;2023-07-08T01:16:59;15.90;99.90
25640;DHT22;13497;48.322;16.204;2023-07-08T01:19:25;15.90;99.90
25640;DHT22;13497;48.322;16.204;2023-07-08T01:24:24;16.10;99.90
25640;DHT22;13497;48.322;16.204;2023-07-08T01:26:50;15.90;99.90
25640;DHT22;13497;48.322;16.204;2023-07-08T01:29:16;15.90;99.90
25640;DHT22;13497;48.322;16.204;2023-07-08T01:31:41;15.80;99.90
25640;DHT22;13497;48.322;16.204;2023-07-08T01:34:14;15.80;99.90
25640;DHT22;13497;48.322;16.204;2023-07-08T01:36:44;15.70;99.90
25640;DHT22;13497;48.322;16.204;2023-07-08T01:39:18;15.70;99.90
25640;DHT22;13497;48.322;16.204;2023-07-08T01:41:45;15.60;99.90
25640;DHT22;13497;48.322;16.204;2023-07-08T01:44:22;15.70;99.90
25640;DHT22;13497;48.322;16.204;2023-07-08T01:46:48;15.70;99.90
25640;DHT22;13497;48.322;16.204;2023-07-08T01:49:14;15.80;99.90
25640;DHT22;13497;48.322;16.204;2023-07-08T01:51:40;15.90;99.90
25640;DHT22;13497;48.322;16.204;2023-07-08T01:54:06;16.00;99.90
25640;DHT22;13497;48.322;16.204;2023-07-08T01:56:31;16.00;99.90
25640;DHT22;13497;48.322;16.204;2023-07-08T01:58:57;16.00;99.90
25640;DHT22;13497;48.322;16.204;2023-07-08T02:01:23;16.00;99.90
25640;DHT22;13497;48.322;16.204;2023-07-08T02:03:48;15.80;99.90
25640;DHT22;13497;48.322;16.204;2023-07-08T02:06:14;15.90;99.90
25640;DHT22;13497;48.322;16.204;2023-07-08T02:08:40;15.90;99.90
25640;DHT22;13497;48.322;16.204;2023-07-08T02:11:06;15.70;99.90
25640;DHT22;13497;48.322;16.204;2023-07-08T02:13:31;15.70;99.90
25640;DHT22;13497;48.322;16.204;2023-07-08T02:15:57;15.60;99.90
25640;DHT22;13497;48.322;16.204;2023-07-08T02:18:23;15.80;99.90
25640;DHT22;13497;48.322;16.204;2023-07-08T02:20:50;15.80;99.90
25640;DHT22;13497;48.322;16.204;2023-07-08T02:23:15;15.70;99.90
25640;DHT22;13497;48.322;16.204;2023-07-08T02:25:41;15.70;99.90
25640;DHT22;13497;48.322;16.204;2023-07-08T02:28:07;15.70;99.90
25640;DHT22;13497;48.322;16.204;2023-07-08T02:30:33;15.70;99.90
25640;DHT22;13497;48.322;16.204;2023-07-08T02:32:58;15.60;99.90
25640;DHT22;13497;48.322;16.204;2023-07-08T02:35:29;15.50;99.90
25640;DHT22;13497;48.322;16.204;2023-07-08T02:37:56;15.50;99.90
25640;DHT22;13497;48.322;16.204;2023-07-08T02:40:24;15.50;99.90
25640;DHT22;13497;48.322;16.204;2023-07-08T02:42:50;15.50;99.90
25640;DHT22;13497;48.322;16.204;2023-07-08T02:45:16;15.50;99.90
25640;DHT22;13497;48.322;16.204;2023-07-08T02:47:42;15.50;99.90
25640;DHT22;13497;48.322;16.204;2023-07-08T02:50:09;15.50;99.90
25640;DHT22;13497;48.322;16.204;2023-07-08T02:52:35;15.50;99.90
25640;DHT22;13497;48.322;16.204;2023-07-08T02:55:01;15.50;99.90
25640;DHT22;13497;48.322;16.204;2023-07-08T02:57:27;15.40;99.90
25640;DHT22;13497;48.322;16.204;2023-07-08T02:59:53;15.30;99.90
25640;DHT22;13497;48.322;16.204;2023-07-08T03:02:18;15.20;99.90
25640;DHT22;13497;48.322;16.204;2023-07-08T03:04:44;15.20;99.90
25640;DHT22;13497;48.322;16.204;2023-07-08T03:07:10;15.20;99.90
25640;DHT22;13497;48.322;16.204;2023-07-08T03:09:38;15.30;99.90
25640;DHT22;13497;48.322;16.204;2023-07-08T03:12:05;15.30;99.90
25640;DHT22;13497;48.322;16.204;2023-07-08T03:14:31;15.30;99.90
25640;DHT22;13497;48.322;16.204;2023-07-08T03:16:57;15.30;99.90
25640;DHT22;13497;48.322;16.204;2023-07-08T03:19:23;15.50;99.90
25640;DHT22;13497;48.322;16.204;2023-07-08T03:21:48;15.50;99.90
25640;DHT22;13497;48.322;16.204;2023-07-08T03:24:14;15.60;99.90
25640;DHT22;13497;48.322;16.204;2023-07-08T03:26:43;15.50;99.90
25640;DHT22;13497;48.322;16.204;2023-07-08T03:29:17;15.60;99.90
25640;DHT22;13497;48.322;16.204;2023-07-08T03:31:44;15.60;99.90
25640;DHT22;13497;48.322;16.204;2023-07-08T03:34:10;15.60;99.90
25640;DHT22;13497;48.322;16.204;2023-07-08T03:36:40;15.60;99.90
25640;DHT22;13497;48.322;16.204;2023-07-08T03:39:17;15.60;99.90
25640;DHT22;13497;48.322;16.204;2023-07-08T03:41:43;15.70;99.90
25640;DHT22;13497;48.322;16.204;2023-07-08T03:44:09;15.70;99.90
25640;DHT22;13497;48.322;16.204;2023-07-08T03:46:35;15.70;99.90
25640;DHT22;13497;48.322;16.204;2023-07-08T03:49:01;15.60;99.90
25640;DHT22;13497;48.322;16.204;2023-07-08T03:51:32;15.70;99.90
25640;DHT22;13497;48.322;16.204;2023-07-08T03:53:58;15.70;99.90
25640;DHT22;13497;48.322;16.204;2023-07-08T03:56:25;15.70;99.90
25640;DHT22;13497;48.322;16.204;2023-07-08T03:58:51;15.70;99.90
25640;DHT22;13497;48.322;16.204;2023-07-08T04:01:18;15.80;99.90
25640;DHT22;13497;48.322;16.204;2023-07-08T04:03:47;16.30;99.90
25640;DHT22;13497;48.322;16.204;2023-07-08T04:06:14;17.20;99.90
25640;DHT22;13497;48.322;16.204;2023-07-08T04:08:40;18.40;99.90
25640;DHT22;13497;48.322;16.204;2023-07-08T04:11:06;19.70;99.90
25640;DHT22;13497;48.322;16.204;2023-07-08T04:13:33;20.90;98.10
25640;DHT22;13497;48.322;16.204;2023-07-08T04:16:01;21.90;96.60
25640;DHT22;13497;48.322;16.204;2023-07-08T04:18:27;22.80;95.00
25640;DHT22;13497;48.322;16.204;2023-07-08T04:20:53;23.40;93.60
25640;DHT22;13497;48.322;16.204;2023-07-08T04:23:19;23.70;93.20
25640;DHT22;13497;48.322;16.204;2023-07-08T04:25:46;24.00;92.40
25640;DHT22;13497;48.322;16.204;2023-07-08T04:28:12;24.30;91.90
25640;DHT22;13497;48.322;16.204;2023-07-08T04:30:37;24.60;91.30
25640;DHT22;13497;48.322;16.204;2023-07-08T04:33:16;24.80;91.10
25640;DHT22;13497;48.322;16.204;2023-07-08T04:35:43;25.00;90.70
25640;DHT22;13497;48.322;16.204;2023-07-08T04:38:23;25.40;90.20
25640;DHT22;13497;48.322;16.204;2023-07-08T04:40:49;25.20;90.00
25640;DHT22;13497;48.322;16.204;2023-07-08T04:43:17;25.40;89.90
25640;DHT22;13497;48.322;16.204;2023-07-08T04:45:45;25.70;88.90
25640;DHT22;13497;48.322;16.204;2023-07-08T04:48:14;26.10;88.50
25640;DHT22;13497;48.322;16.204;2023-07-08T04:50:42;26.40;87.50
25640;DHT22;13497;48.322;16.204;2023-07-08T04:53:08;26.20;87.70
25640;DHT22;13497;48.322;16.204;2023-07-08T04:55:50;26.30;87.90
25640;DHT22;13497;48.322;16.204;2023-07-08T04:58:16;26.60;87.30
25640;DHT22;13497;48.322;16.204;2023-07-08T05:00:42;27.00;86.40
25640;DHT22;13497;48.322;16.204;2023-07-08T05:03:07;27.20;85.80
25640;DHT22;13497;48.322;16.204;2023-07-08T05:05:33;26.90;84.80
25640;DHT22;13497;48.322;16.204;2023-07-08T05:07:58;26.50;85.70
25640;DHT22;13497;48.322;16.204;2023-07-08T05:10:24;26.90;85.40
25640;DHT22;13497;48.322;16.204;2023-07-08T05:12:49;26.00;86.20
25640;DHT22;13497;48.322;16.204;2023-07-08T05:15:15;25.70;87.10
25640;DHT22;13497;48.322;16.204;2023-07-08T05:17:42;25.70;87.30
25640;DHT22;13497;48.322;16.204;2023-07-08T05:20:08;25.70;87.50
25640;DHT22;13497;48.322;16.204;2023-07-08T05:22:34;26.00;87.60
25640;DHT22;13497;48.322;16.204;2023-07-08T05:25:00;26.20;86.90
25640;DHT22;13497;48.322;16.204;2023-07-08T05:27:26;27.00;86.20
25640;DHT22;13497;48.322;16.204;2023-07-08T05:29:52;27.60;86.10
25640;DHT22;13497;48.322;16.204;2023-07-08T05:32:18;27.70;85.40
25640;DHT22;13497;48.322;16.204;2023-07-08T05:34:44;28.10;84.30
25640;DHT22;13497;48.322;16.204;2023-07-08T05:37:13;28.60;83.30
25640;DHT22;13497;48.322;16.204;2023-07-08T05:39:40;28.60;82.60
25640;DHT22;13497;48.322;16.204;2023-07-08T05:42:06;28.30;82.00
25640;DHT22;13497;48.322;16.204;2023-07-08T05:44:32;28.20;82.90
25640;DHT22;13497;48.322;16.204;2023-07-08T05:46:57;28.20;82.60
25640;DHT22;13497;48.322;16.204;2023-07-08T05:49:23;28.80;81.70
25640;DHT22;13497;48.322;16.204;2023-07-08T05:51:48;29.30;81.20
25640;DHT22;13497;48.322;16.204;2023-07-08T05:54:14;28.80;81.40
25640;DHT22;13497;48.322;16.204;2023-07-08T05:56:40;28.10;83.50
25640;DHT22;13497;48.322;16.204;2023-07-08T05:59:06;27.50;85.20
25640;DHT22;13497;48.322;16.204;2023-07-08T06:01:31;27.90;85.40
25640;DHT22;13497;48.322;16.204;2023-07-08T06:03:57;28.40;84.20
25640;DHT22;13497;48.322;16.204;2023-07-08T06:06:26;29.10;83.40
25640;DHT22;13497;48.322;16.204;2023-07-08T06:08:53;29.80;80.90
25640;DHT22;13497;48.322;16.204;2023-07-08T06:11:19;30.20;79.40
25640;DHT22;13497;48.322;16.204;2023-07-08T06:13:45;29.80;75.80
25640;DHT22;13497;48.322;16.204;2023-07-08T06:16:11;29.60;75.60
25640;DHT22;13497;48.322;16.204;2023-07-08T06:18:37;29.70;75.60
25640;DHT22;13497;48.322;16.204;2023-07-08T06:21:03;29.40;75.60
25640;DHT22;13497;48.322;16.204;2023-07-08T06:23:29;29.70;75.20
25640;DHT22;13497;48.322;16.204;2023-07-08T06:25:54;30.00;74.30
25640;DHT22;13497;48.322;16.204;2023-07-08T06:28:20;30.20;74.10
25640;DHT22;13497;48.322;16.204;2023-07-08T06:30:46;29.90;74.20
25640;DHT22;13497;48.322;16.204;2023-07-08T06:33:13;29.90;75.00
25640;DHT22;13497;48.322;16.204;2023-07-08T06:35:39;30.00;74.70
25640;DHT22;13497;48.322;16.204;2023-07-08T06:38:06;30.50;73.90
25640;DHT22;13497;48.322;16.204;2023-07-08T06:40:33;30.40;74.40
25640;DHT22;13497;48.322;16.204;2023-07-08T06:42:59;30.40;74.00
25640;DHT22;13497;48.322;16.204;2023-07-08T06:45:24;30.10;73.80
25640;DHT22;13497;48.322;16.204;2023-07-08T06:47:50;30.00;74.20
25640;DHT22;13497;48.322;16.204;2023-07-08T06:50:16;30.00;75.00
25640;DHT22;13497;48.322;16.204;2023-07-08T06:52:41;30.30;74.20
25640;DHT22;13497;48.322;16.204;2023-07-08T06:55:09;30.20;74.60
25640;DHT22;13497;48.322;16.204;2023-07-08T06:57:36;29.40;75.60
25640;DHT22;13497;48.322;16.204;2023-07-08T07:00:05;28.70;77.30
25640;DHT22;13497;48.322;16.204;2023-07-08T07:02:32;27.60;79.40
25640;DHT22;13497;48.322;16.204;2023-07-08T07:04:58;26.60;81.40
25640;DHT22;13497;48.322;16.204;2023-07-08T07:07:24;25.90;83.30
25640;DHT22;13497;48.322;16.204;2023-07-08T07:09:49;25.50;84.80
25640;DHT22;13497;48.322;16.204;2023-07-08T07:12:15;25.30;85.10
25640;DHT22;13497;48.322;16.204;2023-07-08T07:14:43;25.20;86.30
25640;DHT22;13497;48.322;16.204;2023-07-08T07:17:09;25.30;86.60
25640;DHT22;13497;48.322;16.204;2023-07-08T07:19:35;25.40;86.40
25640;DHT22;13497;48.322;16.204;2023-07-08T07:22:01;25.50;86.50
25640;DHT22;13497;48.322;16.204;2023-07-08T07:24:26;25.50;86.00
25640;DHT22;13497;48.322;16.204;2023-07-08T07:26:52;25.50;86.30
25640;DHT22;13497;48.322;16.204;2023-07-08T07:29:21;25.40;86.30
25640;DHT22;13497;48.322;16.204;2023-07-08T07:31:47;25.40;86.30
25640;DHT22;13497;48.322;16.204;2023-07-08T07:34:13;25.40;86.40
25640;DHT22;13497;48.322;16.204;2023-07-08T07:36:39;25.40;86.90
25640;DHT22;13497;48.322;16.204;2023-07-08T07:39:05;25.50;86.20
25640;DHT22;13497;48.322;16.204;2023-07-08T07:41:31;25.40;85.80
25640;DHT22;13497;48.322;16.204;2023-07-08T07:43:57;25.40;86.20
25640;DHT22;13497;48.322;16.204;2023-07-08T07:46:22;25.40;85.80
25640;DHT22;13497;48.322;16.204;2023-07-08T07:48:48;25.30;86.00
25640;DHT22;13497;48.322;16.204;2023-07-08T07:51:14;25.40;86.30
25640;DHT22;13497;48.322;16.204;2023-07-08T07:53:39;25.60;86.50
25640;DHT22;13497;48.322;16.204;2023-07-08T07:56:06;25.80;86.00
25640;DHT22;13497;48.322;16.204;2023-07-08T07:58:32;25.90;85.00
25640;DHT22;13497;48.322;16.204;2023-07-08T08:00:58;25.80;86.00
25640;DHT22;13497;48.322;16.204;2023-07-08T08:03:23;25.90;86.00
25640;DHT22;13497;48.322;16.204;2023-07-08T08:05:49;26.00;85.60
25640;DHT22;13497;48.322;16.204;2023-07-08T08:08:15;25.90;85.80
25640;DHT22;13497;48.322;16.204;2023-07-08T08:10:44;25.80;85.80
25640;DHT22;13497;48.322;16.204;2023-07-08T08:13:10;25.70;85.60
25640;DHT22;13497;48.322;16.204;2023-07-08T08:15:37;25.60;85.80
25640;DHT22;13497;48.322;16.204;2023-07-08T08:18:03;25.60;84.80
25640;DHT22;13497;48.322;16.204;2023-07-08T08:20:29;25.50;85.70
25640;DHT22;13497;48.322;16.204;2023-07-08T08:22:54;25.30;85.70
25640;DHT22;13497;48.322;16.204;2023-07-08T08:25:22;25.20;86.00
25640;DHT22;13497;48.322;16.204;2023-07-08T08:27:48;25.30;86.20
25640;DHT22;13497;48.322;16.204;2023-07-08T08:30:14;25.10;86.00
25640;DHT22;13497;48.322;16.204;2023-07-08T08:32:40;25.00;86.10
25640;DHT22;13497;48.322;16.204;2023-07-08T08:35:06;25.20;85.70
25640;DHT22;13497;48.322;16.204;2023-07-08T08:37:32;25.20;86.10
25640;DHT22;13497;48.322;16.204;2023-07-08T08:39:58;25.30;84.90
25640;DHT22;13497;48.322;16.204;2023-07-08T08:42:31;25.30;85.20
25640;DHT22;13497;48.322;16.204;2023-07-08T08:45:00;25.30;85.00
25640;DHT22;13497;48.322;16.204;2023-07-08T08:50:20;25.50;84.40
25640;DHT22;13497;48.322;16.204;2023-07-08T08:52:50;25.40;84.30
25640;DHT22;13497;48.322;16.204;2023-07-08T08:55:16;25.60;84.50
25640;DHT22;13497;48.322;16.204;2023-07-08T08:57:49;25.70;84.30
25640;DHT22;13497;48.322;16.204;2023-07-08T09:00:30;25.60;84.10
25640;DHT22;13497;48.322;16.204;2023-07-08T09:05:23;25.50;84.00
25640;DHT22;13497;48.322;16.204;2023-07-08T09:08:05;25.50;83.90
25640;DHT22;13497;48.322;16.204;2023-07-08T09:10:53;25.60;82.80
25640;DHT22;13497;48.322;16.204;2023-07-08T09:13:25;25.70;83.30
25640;DHT22;13497;48.322;16.204;2023-07-08T09:19:09;26.10;81.80
25640;DHT22;13497;48.322;16.204;2023-07-08T09:22:04;26.10;81.00
25640;DHT22;13497;48.322;16.204;2023-07-08T09:24:51;26.10;80.60
25640;DHT22;13497;48.322;16.204;2023-07-08T09:27:20;26.40;78.70
25640;DHT22;13497;48.322;16.204;2023-07-08T09:29:46;26.70;79.20
25640;DHT22;13497;48.322;16.204;2023-07-08T09:32:20;26.70;78.00
25640;DHT22;13497;48.322;16.204;2023-07-08T09:34:50;26.70;76.60
25640;DHT22;13497;48.322;16.204;2023-07-08T09:37:27;26.40;77.20
25640;DHT22;13497;48.322;16.204;2023-07-08T09:39:55;26.50;78.10
25640;DHT22;13497;48.322;16.204;2023-07-08T09:42:23;26.60;78.60
25640;DHT22;13497;48.322;16.204;2023-07-08T09:44:55;26.90;78.50
25640;DHT22;13497;48.322;16.204;2023-07-08T09:47:25;26.80;76.80
25640;DHT22;13497;48.322;16.204;2023-07-08T09:49:52;26.70;77.60
25640;DHT22;13497;48.322;16.204;2023-07-08T09:52:18;26.80;77.80
25640;DHT22;13497;48.322;16.204;2023-07-08T09:54:45;27.00;77.20
25640;DHT22;13497;48.322;16.204;2023-07-08T09:59:48;27.00;74.00
25640;DHT22;13497;48.322;16.204;2023-07-08T10:02:38;27.00;75.20
25640;DHT22;13497;48.322;16.204;2023-07-08T10:05:18;26.90;77.50
25640;DHT22;13497;48.322;16.204;2023-07-08T10:07:45;27.00;76.20
25640;DHT22;13497;48.322;16.204;2023-07-08T10:10:16;27.10;76.40
25640;DHT22;13497;48.322;16.204;2023-07-08T10:12:47;27.20;75.00
25640;DHT22;13497;48.322;16.204;2023-07-08T10:15:30;27.50;75.30
25640;DHT22;13497;48.322;16.204;2023-07-08T10:17:56;27.70;74.20
25640;DHT22;13497;48.322;16.204;2023-07-08T10:20:22;27.60;74.90
25640;DHT22;13497;48.322;16.204;2023-07-08T10:26:11;27.40;75.30
25640;DHT22;13497;48.322;16.204;2023-07-08T10:31:20;27.50;75.00
25640;DHT22;13497;48.322;16.204;2023-07-08T10:34:00;27.60;75.20
25640;DHT22;13497;48.322;16.204;2023-07-08T10:36:43;27.60;72.70
25640;DHT22;13497;48.322;16.204;2023-07-08T10:42:36;27.60;73.00
25640;DHT22;13497;48.322;16.204;2023-07-08T10:53:42;28.50;72.10
25640;DHT22;13497;48.322;16.204;2023-07-08T10:56:20;28.60;70.30
25640;DHT22;13497;48.322;16.204;2023-07-08T11:07:07;28.30;69.70
25640;DHT22;13497;48.322;16.204;2023-07-08T11:09:43;28.20;69.50
25640;DHT22;13497;48.322;16.204;2023-07-08T11:12:36;28.50;70.20
25640;DHT22;13497;48.322;16.204;2023-07-08T11:18:33;29.00;69.50
25640;DHT22;13497;48.322;16.204;2023-07-08T11:23:33;29.00;70.20
25640;DHT22;13497;48.322;16.204;2023-07-08T11:26:22;29.30;69.70
25640;DHT22;13497;48.322;16.204;2023-07-08T11:28:51;29.10;68.80
25640;DHT22;13497;48.322;16.204;2023-07-08T11:31:18;29.20;68.60
25640;DHT22;13497;48.322;16.204;2023-07-08T11:33:46;29.10;69.30
25640;DHT22;13497;48.322;16.204;2023-07-08T11:36:13;29.10;70.30
25640;DHT22;13497;48.322;16.204;2023-07-08T11:38:56;29.20;70.30
25640;DHT22;13497;48.322;16.204;2023-07-08T11:41:26;29.40;68.30
25640;DHT22;13497;48.322;16.204;2023-07-08T11:46:26;29.10;67.80
25640;DHT22;13497;48.322;16.204;2023-07-08T11:48:55;29.30;68.10
25640;DHT22;13497;48.322;16.204;2023-07-08T11:51:29;29.40;67.80
25640;DHT22;13497;48.322;16.204;2023-07-08T11:56:57;29.40;68.60
25640;DHT22;13497;48.322;16.204;2023-07-08T11:59:36;29.30;67.70
25640;DHT22;13497;48.322;16.204;2023-07-08T12:02:19;29.30;67.90
25640;DHT22;13497;48.322;16.204;2023-07-08T12:05:00;29.40;67.20
25640;DHT22;13497;48.322;16.204;2023-07-08T12:07:42;29.70;67.60
25640;DHT22;13497;48.322;16.204;2023-07-08T12:10:11;29.60;67.30
25640;DHT22;13497;48.322;16.204;2023-07-08T12:12:42;29.70;68.10
25640;DHT22;13497;48.322;16.204;2023-07-08T12:15:23;29.80;67.70
25640;DHT22;13497;48.322;16.204;2023-07-08T12:18:34;29.90;68.00
25640;DHT22;13497;48.322;16.204;2023-07-08T12:20:44;29.90;68.50
25640;DHT22;13497;48.322;16.204;2023-07-08T12:23:22;29.30;68.70
25640;DHT22;13497;48.322;16.204;2023-07-08T12:25:48;29.00;68.50
25640;DHT22;13497;48.322;16.204;2023-07-08T12:28:14;29.00;69.10
25640;DHT22;13497;48.322;16.204;2023-07-08T12:30:41;29.10;69.00
25640;DHT22;13497;48.322;16.204;2023-07-08T12:33:16;29.10;68.80
25640;DHT22;13497;48.322;16.204;2023-07-08T12:35:44;29.10;68.10
25640;DHT22;13497;48.322;16.204;2023-07-08T12:40:42;29.40;68.10
25640;DHT22;13497;48.322;16.204;2023-07-08T12:43:09;29.60;67.90
25640;DHT22;13497;48.322;16.204;2023-07-08T12:45:35;30.00;67.10
25640;DHT22;13497;48.322;16.204;2023-07-08T12:48:01;30.30;67.30
25640;DHT22;13497;48.322;16.204;2023-07-08T12:50:27;30.50;66.70
25640;DHT22;13497;48.322;16.204;2023-07-08T12:52:52;30.10;66.50
25640;DHT22;13497;48.322;16.204;2023-07-08T12:55:18;29.50;67.10
25640;DHT22;13497;48.322;16.204;2023-07-08T12:57:46;29.40;67.10
25640;DHT22;13497;48.322;16.204;2023-07-08T13:00:37;29.70;67.30
25640;DHT22;13497;48.322;16.204;2023-07-08T13:03:15;29.90;66.80
25640;DHT22;13497;48.322;16.204;2023-07-08T13:05:43;30.10;66.50
25640;DHT22;13497;48.322;16.204;2023-07-08T13:08:18;30.30;66.00
25640;DHT22;13497;48.322;16.204;2023-07-08T13:10:44;30.20;66.10
25640;DHT22;13497;48.322;16.204;2023-07-08T13:13:31;30.00;66.30
25640;DHT22;13497;48.322;16.204;2023-07-08T13:15:58;30.00;66.90
25640;DHT22;13497;48.322;16.204;2023-07-08T13:18:31;30.30;66.90
25640;DHT22;13497;48.322;16.204;2023-07-08T13:20:58;30.30;65.30
25640;DHT22;13497;48.322;16.204;2023-07-08T13:23:26;30.30;66.60
25640;DHT22;13497;48.322;16.204;2023-07-08T13:25:53;30.30;65.30
25640;DHT22;13497;48.322;16.204;2023-07-08T13:28:23;30.30;65.50
25640;DHT22;13497;48.322;16.204;2023-07-08T13:30:54;30.10;65.50
25640;DHT22;13497;48.322;16.204;2023-07-08T13:33:20;30.10;65.10
25640;DHT22;13497;48.322;16.204;2023-07-08T13:35:47;30.10;65.20
25640;DHT22;13497;48.322;16.204;2023-07-08T13:38:19;30.40;65.40
25640;DHT22;13497;48.322;16.204;2023-07-08T13:40:52;30.50;65.30
25640;DHT22;13497;48.322;16.204;2023-07-08T13:43:26;30.90;64.80
25640;DHT22;13497;48.322;16.204;2023-07-08T13:45:53;30.60;64.50
25640;DHT22;13497;48.322;16.204;2023-07-08T13:48:41;30.80;64.80
25640;DHT22;13497;48.322;16.204;2023-07-08T13:51:15;31.10;64.70
25640;DHT22;13497;48.322;16.204;2023-07-08T13:53:53;31.20;63.60
25640;DHT22;13497;48.322;16.204;2023-07-08T13:56:26;31.10;63.50
25640;DHT22;13497;48.322;16.204;2023-07-08T13:59:12;30.80;63.30
25640;DHT22;13497;48.322;16.204;2023-07-08T14:01:42;30.70;62.50
25640;DHT22;13497;48.322;16.204;2023-07-08T14:04:13;30.60;61.50
25640;DHT22;13497;48.322;16.204;2023-07-08T14:06:40;30.70;62.20
25640;DHT22;13497;48.322;16.204;2023-07-08T14:09:21;30.80;62.10
25640;DHT22;13497;48.322;16.204;2023-07-08T14:11:48;30.90;62.00
25640;DHT22;13497;48.322;16.204;2023-07-08T14:14:14;31.10;62.10
25640;DHT22;13497;48.322;16.204;2023-07-08T14:16:45;31.20;62.50
25640;DHT22;13497;48.322;16.204;2023-07-08T14:19:26;31.10;61.00
25640;DHT22;13497;48.322;16.204;2023-07-08T14:21:58;30.80;61.10
25640;DHT22;13497;48.322;16.204;2023-07-08T14:24:24;30.70;61.50
25640;DHT22;13497;48.322;16.204;2023-07-08T14:26:51;30.90;61.40
25640;DHT22;13497;48.322;16.204;2023-07-08T14:29:17;30.80;61.30
25640;DHT22;13497;48.322;16.204;2023-07-08T14:31:43;30.80;62.30
25640;DHT22;13497;48.322;16.204;2023-07-08T14:34:16;30.80;62.30
25640;DHT22;13497;48.322;16.204;2023-07-08T14:36:43;30.70;62.20
25640;DHT22;13497;48.322;16.204;2023-07-08T14:39:12;30.70;61.40
25640;DHT22;13497;48.322;16.204;2023-07-08T14:41:39;30.80;62.00
25640;DHT22;13497;48.322;16.204;2023-07-08T14:44:22;31.00;61.70
25640;DHT22;13497;48.322;16.204;2023-07-08T14:46:49;31.10;61.50
25640;DHT22;13497;48.322;16.204;2023-07-08T14:49:19;31.20;61.50
25640;DHT22;13497;48.322;16.204;2023-07-08T14:51:46;31.40;61.30
25640;DHT22;13497;48.322;16.204;2023-07-08T14:54:12;31.40;60.80
25640;DHT22;13497;48.322;16.204;2023-07-08T14:56:39;31.40;60.90
25640;DHT22;13497;48.322;16.204;2023-07-08T14:59:05;31.80;62.60
25640;DHT22;13497;48.322;16.204;2023-07-08T15:01:31;31.90;61.90
25640;DHT22;13497;48.322;16.204;2023-07-08T15:03:57;31.90;60.50
25640;DHT22;13497;48.322;16.204;2023-07-08T15:06:24;31.60;60.10
25640;DHT22;13497;48.322;16.204;2023-07-08T15:08:50;31.40;61.10
25640;DHT22;13497;48.322;16.204;2023-07-08T15:11:16;31.40;60.80
25640;DHT22;13497;48.322;16.204;2023-07-08T15:13:43;31.20;60.90
25640;DHT22;13497;48.322;16.204;2023-07-08T15:16:16;31.50;61.00
25640;DHT22;13497;48.322;16.204;2023-07-08T15:18:42;31.70;60.50
25640;DHT22;13497;48.322;16.204;2023-07-08T15:21:12;31.80;60.70
25640;DHT22;13497;48.322;16.204;2023-07-08T15:23:39;31.30;60.50
25640;DHT22;13497;48.322;16.204;2023-07-08T15:26:05;30.90;60.90
25640;DHT22;13497;48.322;16.204;2023-07-08T15:31:09;31.00;61.90
25640;DHT22;13497;48.322;16.204;2023-07-08T15:33:36;31.20;62.10
25640;DHT22;13497;48.322;16.204;2023-07-08T15:36:02;31.00;61.50
25640;DHT22;13497;48.322;16.204;2023-07-08T15:38:28;30.80;61.20
25640;DHT22;13497;48.322;16.204;2023-07-08T15:40:53;30.70;61.10
25640;DHT22;13497;48.322;16.204;2023-07-08T15:43:19;30.90;61.30
25640;DHT22;13497;48.322;16.204;2023-07-08T15:45:45;30.90;61.40
25640;DHT22;13497;48.322;16.204;2023-07-08T15:48:16;30.80;61.90
25640;DHT22;13497;48.322;16.204;2023-07-08T15:50:42;30.80;62.30
25640;DHT22;13497;48.322;16.204;2023-07-08T15:53:08;31.20;62.30
25640;DHT22;13497;48.322;16.204;2023-07-08T15:55:40;31.60;63.30
25640;DHT22;13497;48.322;16.204;2023-07-08T15:58:14;31.80;62.20
25640;DHT22;13497;48.322;16.204;2023-07-08T16:00:44;31.70;60.60
25640;DHT22;13497;48.322;16.204;2023-07-08T16:03:13;31.60;61.90
25640;DHT22;13497;48.322;16.204;2023-07-08T16:05:43;31.70;61.20
25640;DHT22;13497;48.322;16.204;2023-07-08T16:08:09;31.70;61.40
25640;DHT22;13497;48.322;16.204;2023-07-08T16:10:35;31.40;61.50
25640;DHT22;13497;48.322;16.204;2023-07-08T16:13:03;31.20;62.20
25640;DHT22;13497;48.322;16.204;2023-07-08T16:15:34;31.10;64.00
25640;DHT22;13497;48.322;16.204;2023-07-08T16:18:02;31.20;66.10
25640;DHT22;13497;48.322;16.204;2023-07-08T16:20:30;31.20;65.40
25640;DHT22;13497;48.322;16.204;2023-07-08T16:22:57;31.50;64.90
25640;DHT22;13497;48.322;16.204;2023-07-08T16:25:31;31.40;66.30
25640;DHT22;13497;48.322;16.204;2023-07-08T16:27:58;31.60;64.60